sensor_id;sensor_type;location;lat;lon;timestamp;temperature;humidity
1329;DHT22;658;48.820;9.354;2022-08-03T00:03:41;26.70;50.70
1329;DHT22;658;48.820;9.354;2022-08-03T00:07:41;26.70;50.80
1329;DHT22;658;48.820;9.354;2022-08-03T00:11:42;26.70;50.80
1329;DHT22;658;48.820;9.354;2022-08-03T00:15:43;26.70;50.80
1329;DHT22;658;48.820;9.354;2022-08-03T00:19:44;26.70;50.80
1329;DHT22;658;48.820;9.354;2022-08-03T00:23:44;26.70;50.90
1329;DHT22;658;48.820;9.354;2022-08-03T00:27:45;26.70;50.90
1329;DHT22;658;48.820;9.354;2022-08-03T00:31:45;26.70;51.00
1329;DHT22;658;48.820;9.354;2022-08-03T00:35:46;26.60;51.00
1329;DHT22;658;48.820;9.354;2022-08-03T00:39:47;26.60;51.00
1329;DHT22;658;48.820;9.354;2022-08-03T00:43:47;26.60;51.10
1329;DHT22;658;48.820;9.354;2022-08-03T00:47:48;26.60;51.10
1329;DHT22;658;48.820;9.354;2022-08-03T00:51:49;26.60;51.10
1329;DHT22;658;48.820;9.354;2022-08-03T00:55:50;26.60;51.40
1329;DHT22;658;48.820;9.354;2022-08-03T00:59:51;26.60;51.20
1329;DHT22;658;48.820;9.354;2022-08-03T01:03:51;26.60;51.20
1329;DHT22;658;48.820;9.354;2022-08-03T01:08:02;26.60;51.20
1329;DHT22;658;48.820;9.354;2022-08-03T01:21:20;26.50;51.20
1329;DHT22;658;48.820;9.354;2022-08-03T01:25:33;26.50;51.20
1329;DHT22;658;48.820;9.354;2022-08-03T01:34:02;26.50;51.20
1329;DHT22;658;48.820;9.354;2022-08-03T01:38:27;26.50;51.30
1329;DHT22;658;48.820;9.354;2022-08-03T01:42:29;26.40;51.20
1329;DHT22;658;48.820;9.354;2022-08-03T01:46:32;26.50;51.30
1329;DHT22;658;48.820;9.354;2022-08-03T01:50:34;26.40;51.30
1329;DHT22;658;48.820;9.354;2022-08-03T01:54:42;26.40;51.30
1329;DHT22;658;48.820;9.354;2022-08-03T01:58:45;26.40;51.40
1329;DHT22;658;48.820;9.354;2022-08-03T02:02:48;26.40;51.30
1329;DHT22;658;48.820;9.354;2022-08-03T02:06:51;26.40;51.30
1329;DHT22;658;48.820;9.354;2022-08-03T02:10:54;26.40;51.90
1329;DHT22;658;48.820;9.354;2022-08-03T02:14:58;26.40;51.30
1329;DHT22;658;48.820;9.354;2022-08-03T02:19:03;26.40;51.40
1329;DHT22;658;48.820;9.354;2022-08-03T02:23:04;26.40;51.40
1329;DHT22;658;48.820;9.354;2022-08-03T02:27:12;26.30;51.40
1329;DHT22;658;48.820;9.354;2022-08-03T02:31:18;26.40;51.40
1329;DHT22;658;48.820;9.354;2022-08-03T02:35:24;26.30;51.40
1329;DHT22;658;48.820;9.354;2022-08-03T02:39:27;26.30;51.40
1329;DHT22;658;48.820;9.354;2022-08-03T02:43:30;26.30;51.50
1329;DHT22;658;48.820;9.354;2022-08-03T02:47:35;26.30;51.40
1329;DHT22;658;48.820;9.354;2022-08-03T02:51:38;26.30;51.40
1329;DHT22;658;48.820;9.354;2022-08-03T02:55:39;26.30;51.50
1329;DHT22;658;48.820;9.354;2022-08-03T02:59:41;26.30;51.50
1329;DHT22;658;48.820;9.354;2022-08-03T03:03:43;26.30;51.50
1329;DHT22;658;48.820;9.354;2022-08-03T03:07:45;26.20;51.50
1329;DHT22;658;48.820;9.354;2022-08-03T03:11:48;26.20;51.50
1329;DHT22;658;48.820;9.354;2022-08-03T03:15:50;26.20;51.70
1329;DHT22;658;48.820;9.354;2022-08-03T03:19:52;26.20;51.60
1329;DHT22;658;48.820;9.354;2022-08-03T03:23:54;26.20;51.70
1329;DHT22;658;48.820;9.354;2022-08-03T03:27:55;26.20;51.70
1329;DHT22;658;48.820;9.354;2022-08-03T03:31:56;26.20;51.60
1329;DHT22;658;48.820;9.354;2022-08-03T03:35:57;26.20;51.70
1329;DHT22;658;48.820;9.354;2022-08-03T03:39:58;26.20;51.70
1329;DHT22;658;48.820;9.354;2022-08-03T03:43:59;26.10;51.70
1329;DHT22;658;48.820;9.354;2022-08-03T03:48:00;26.20;51.80
1329;DHT22;658;48.820;9.354;2022-08-03T03:52:02;26.20;51.80
1329;DHT22;658;48.820;9.354;2022-08-03T03:56:02;26.10;51.70
1329;DHT22;658;48.820;9.354;2022-08-03T04:00:04;26.10;51.70
1329;DHT22;658;48.820;9.354;2022-08-03T04:04:05;26.10;51.70
1329;DHT22;658;48.820;9.354;2022-08-03T04:08:24;26.10;51.80
1329;DHT22;658;48.820;9.354;2022-08-03T04:12:44;26.10;51.80
1329;DHT22;658;48.820;9.354;2022-08-03T04:16:50;26.10;51.90
1329;DHT22;658;48.820;9.354;2022-08-03T04:20:54;26.10;51.90
1329;DHT22;658;48.820;9.354;2022-08-03T04:25:03;26.10;51.90
1329;DHT22;658;48.820;9.354;2022-08-03T04:29:05;26.10;51.90
1329;DHT22;658;48.820;9.354;2022-08-03T04:33:07;26.10;51.90
1329;DHT22;658;48.820;9.354;2022-08-03T04:37:15;26.00;51.90
1329;DHT22;658;48.820;9.354;2022-08-03T04:41:19;26.10;52.10
1329;DHT22;658;48.820;9.354;2022-08-03T04:45:20;26.10;52.20
1329;DHT22;658;48.820;9.354;2022-08-03T04:49:22;26.00;52.00
1329;DHT22;658;48.820;9.354;2022-08-03T04:53:23;26.00;52.00
1329;DHT22;658;48.820;9.354;2022-08-03T04:57:23;26.10;52.10
1329;DHT22;658;48.820;9.354;2022-08-03T05:01:24;26.00;52.10
1329;DHT22;658;48.820;9.354;2022-08-03T05:05:25;26.00;52.10
1329;DHT22;658;48.820;9.354;2022-08-03T05:09:26;26.00;52.10
1329;DHT22;658;48.820;9.354;2022-08-03T05:13:27;26.00;52.10
1329;DHT22;658;48.820;9.354;2022-08-03T05:17:27;26.00;52.00
1329;DHT22;658;48.820;9.354;2022-08-03T05:21:28;26.00;52.10
1329;DHT22;658;48.820;9.354;2022-08-03T05:25:29;26.00;52.00
1329;DHT22;658;48.820;9.354;2022-08-03T05:29:30;26.00;52.00
1329;DHT22;658;48.820;9.354;2022-08-03T05:33:30;26.00;52.00
1329;DHT22;658;48.820;9.354;2022-08-03T05:37:31;26.00;52.00
1329;DHT22;658;48.820;9.354;2022-08-03T05:41:32;26.00;52.00
1329;DHT22;658;48.820;9.354;2022-08-03T05:45:33;26.00;52.00
1329;DHT22;658;48.820;9.354;2022-08-03T05:49:34;26.00;52.10
1329;DHT22;658;48.820;9.354;2022-08-03T05:53:34;26.00;52.10
1329;DHT22;658;48.820;9.354;2022-08-03T05:57:35;26.00;52.20
1329;DHT22;658;48.820;9.354;2022-08-03T06:01:36;26.00;52.30
1329;DHT22;658;48.820;9.354;2022-08-03T06:05:37;26.00;52.80
1329;DHT22;658;48.820;9.354;2022-08-03T06:09:38;26.00;52.30
1329;DHT22;658;48.820;9.354;2022-08-03T06:13:41;26.00;52.30
1329;DHT22;658;48.820;9.354;2022-08-03T06:17:49;26.00;52.30
1329;DHT22;658;48.820;9.354;2022-08-03T06:21:50;26.00;52.40
1329;DHT22;658;48.820;9.354;2022-08-03T06:25:50;26.00;52.40
1329;DHT22;658;48.820;9.354;2022-08-03T06:29:51;26.10;52.50
1329;DHT22;658;48.820;9.354;2022-08-03T06:33:52;26.10;52.40
1329;DHT22;658;48.820;9.354;2022-08-03T06:37:53;26.10;52.30
1329;DHT22;658;48.820;9.354;2022-08-03T06:41:53;26.10;52.40
1329;DHT22;658;48.820;9.354;2022-08-03T06:45:54;26.10;52.30
1329;DHT22;658;48.820;9.354;2022-08-03T06:49:55;26.10;52.90
1329;DHT22;658;48.820;9.354;2022-08-03T06:53:56;26.20;52.20
1329;DHT22;658;48.820;9.354;2022-08-03T06:57:57;26.20;52.30
1329;DHT22;658;48.820;9.354;2022-08-03T07:01:58;26.20;52.40
1329;DHT22;658;48.820;9.354;2022-08-03T07:05:59;26.10;52.40
1329;DHT22;658;48.820;9.354;2022-08-03T07:10:00;26.20;52.50
1329;DHT22;658;48.820;9.354;2022-08-03T07:14:00;26.20;52.40
1329;DHT22;658;48.820;9.354;2022-08-03T07:18:01;26.20;52.40
1329;DHT22;658;48.820;9.354;2022-08-03T07:22:02;26.20;52.40
1329;DHT22;658;48.820;9.354;2022-08-03T07:26:03;26.20;52.50
1329;DHT22;658;48.820;9.354;2022-08-03T07:30:05;26.30;52.50
1329;DHT22;658;48.820;9.354;2022-08-03T07:34:07;26.30;52.60
1329;DHT22;658;48.820;9.354;2022-08-03T07:38:08;26.30;52.60
1329;DHT22;658;48.820;9.354;2022-08-03T07:42:08;26.30;52.50
1329;DHT22;658;48.820;9.354;2022-08-03T07:46:09;26.30;52.50
1329;DHT22;658;48.820;9.354;2022-08-03T07:50:10;26.40;52.40
1329;DHT22;658;48.820;9.354;2022-08-03T07:54:10;26.40;52.40
1329;DHT22;658;48.820;9.354;2022-08-03T07:58:11;26.40;52.40
1329;DHT22;658;48.820;9.354;2022-08-03T08:02:15;26.50;52.50
1329;DHT22;658;48.820;9.354;2022-08-03T08:06:15;26.50;52.40
1329;DHT22;658;48.820;9.354;2022-08-03T08:10:17;26.50;52.30
1329;DHT22;658;48.820;9.354;2022-08-03T08:14:17;26.60;52.40
1329;DHT22;658;48.820;9.354;2022-08-03T08:18:18;26.60;52.40
1329;DHT22;658;48.820;9.354;2022-08-03T08:22:19;26.60;52.40
1329;DHT22;658;48.820;9.354;2022-08-03T08:26:19;26.70;52.40
1329;DHT22;658;48.820;9.354;2022-08-03T08:30:21;26.70;52.60
1329;DHT22;658;48.820;9.354;2022-08-03T08:34:22;26.80;52.60
1329;DHT22;658;48.820;9.354;2022-08-03T08:38:23;26.80;53.00
1329;DHT22;658;48.820;9.354;2022-08-03T08:42:24;26.80;52.40
1329;DHT22;658;48.820;9.354;2022-08-03T08:46:24;26.80;52.40
1329;DHT22;658;48.820;9.354;2022-08-03T08:50:25;26.90;52.40
1329;DHT22;658;48.820;9.354;2022-08-03T08:54:27;26.90;52.30
1329;DHT22;658;48.820;9.354;2022-08-03T08:58:36;27.00;52.30
1329;DHT22;658;48.820;9.354;2022-08-03T09:02:37;27.00;52.80
1329;DHT22;658;48.820;9.354;2022-08-03T09:06:38;27.00;52.10
1329;DHT22;658;48.820;9.354;2022-08-03T09:10:39;27.10;52.10
1329;DHT22;658;48.820;9.354;2022-08-03T09:14:40;27.20;52.00
1329;DHT22;658;48.820;9.354;2022-08-03T09:18:43;27.20;51.90
1329;DHT22;658;48.820;9.354;2022-08-03T09:26:54;27.30;51.70
1329;DHT22;658;48.820;9.354;2022-08-03T09:30:59;27.30;51.50
1329;DHT22;658;48.820;9.354;2022-08-03T09:35:02;27.40;51.10
1329;DHT22;658;48.820;9.354;2022-08-03T09:39:08;27.40;50.40
1329;DHT22;658;48.820;9.354;2022-08-03T09:43:11;27.40;49.90
1329;DHT22;658;48.820;9.354;2022-08-03T09:47:26;27.50;49.60
1329;DHT22;658;48.820;9.354;2022-08-03T09:51:27;27.50;49.30
1329;DHT22;658;48.820;9.354;2022-08-03T09:55:28;27.60;49.20
1329;DHT22;658;48.820;9.354;2022-08-03T09:59:30;27.60;49.10
1329;DHT22;658;48.820;9.354;2022-08-03T10:03:35;27.60;49.00
1329;DHT22;658;48.820;9.354;2022-08-03T10:07:47;27.60;49.00
1329;DHT22;658;48.820;9.354;2022-08-03T10:11:48;27.70;48.90
1329;DHT22;658;48.820;9.354;2022-08-03T10:15:49;27.70;48.80
1329;DHT22;658;48.820;9.354;2022-08-03T10:19:50;27.80;48.70
1329;DHT22;658;48.820;9.354;2022-08-03T10:23:52;27.80;48.60
1329;DHT22;658;48.820;9.354;2022-08-03T10:27:55;27.80;48.40
1329;DHT22;658;48.820;9.354;2022-08-03T10:31:58;27.80;48.20
1329;DHT22;658;48.820;9.354;2022-08-03T10:36:01;27.90;47.90
1329;DHT22;658;48.820;9.354;2022-08-03T10:40:03;27.90;47.60
1329;DHT22;658;48.820;9.354;2022-08-03T10:44:09;27.90;47.60
1329;DHT22;658;48.820;9.354;2022-08-03T10:48:10;28.00;47.40
1329;DHT22;658;48.820;9.354;2022-08-03T10:52:11;28.00;47.30
1329;DHT22;658;48.820;9.354;2022-08-03T10:56:38;28.00;47.20
1329;DHT22;658;48.820;9.354;2022-08-03T11:00:58;28.10;47.00
1329;DHT22;658;48.820;9.354;2022-08-03T11:05:24;28.10;47.00
1329;DHT22;658;48.820;9.354;2022-08-03T11:09:25;28.10;46.90
1329;DHT22;658;48.820;9.354;2022-08-03T11:14:01;28.10;46.60
1329;DHT22;658;48.820;9.354;2022-08-03T11:18:08;28.20;46.60
1329;DHT22;658;48.820;9.354;2022-08-03T11:22:09;28.20;46.60
1329;DHT22;658;48.820;9.354;2022-08-03T11:26:15;28.20;46.50
1329;DHT22;658;48.820;9.354;2022-08-03T11:34:19;28.30;46.50
1329;DHT22;658;48.820;9.354;2022-08-03T11:38:20;28.30;46.50
1329;DHT22;658;48.820;9.354;2022-08-03T11:46:25;28.30;46.40
1329;DHT22;658;48.820;9.354;2022-08-03T11:50:26;28.40;46.40
1329;DHT22;658;48.820;9.354;2022-08-03T11:54:35;28.40;46.40
1329;DHT22;658;48.820;9.354;2022-08-03T11:58:35;28.40;46.30
1329;DHT22;658;48.820;9.354;2022-08-03T12:02:36;28.40;46.20
1329;DHT22;658;48.820;9.354;2022-08-03T12:06:37;28.40;46.20
1329;DHT22;658;48.820;9.354;2022-08-03T12:10:57;28.50;46.10
1329;DHT22;658;48.820;9.354;2022-08-03T12:14:58;28.50;45.90
1329;DHT22;658;48.820;9.354;2022-08-03T12:19:04;28.50;45.70
1329;DHT22;658;48.820;9.354;2022-08-03T12:23:07;28.50;46.30
1329;DHT22;658;48.820;9.354;2022-08-03T12:27:09;28.50;45.70
1329;DHT22;658;48.820;9.354;2022-08-03T12:31:09;28.50;45.50
1329;DHT22;658;48.820;9.354;2022-08-03T12:35:21;28.50;45.50
1329;DHT22;658;48.820;9.354;2022-08-03T12:39:26;28.60;45.40
1329;DHT22;658;48.820;9.354;2022-08-03T12:43:29;28.60;45.40
1329;DHT22;658;48.820;9.354;2022-08-03T12:47:57;28.60;45.30
1329;DHT22;658;48.820;9.354;2022-08-03T12:51:58;28.60;45.00
1329;DHT22;658;48.820;9.354;2022-08-03T12:56:03;28.70;45.50
1329;DHT22;658;48.820;9.354;2022-08-03T13:00:12;28.70;44.70
1329;DHT22;658;48.820;9.354;2022-08-03T13:04:28;28.70;44.70
1329;DHT22;658;48.820;9.354;2022-08-03T13:08:29;28.70;44.50
1329;DHT22;658;48.820;9.354;2022-08-03T13:12:29;28.70;44.50
1329;DHT22;658;48.820;9.354;2022-08-03T13:16:31;28.70;44.30
1329;DHT22;658;48.820;9.354;2022-08-03T13:20:31;28.70;44.30
1329;DHT22;658;48.820;9.354;2022-08-03T13:24:33;28.80;44.30
1329;DHT22;658;48.820;9.354;2022-08-03T13:28:33;28.80;44.10
1329;DHT22;658;48.820;9.354;2022-08-03T13:32:34;28.80;43.90
1329;DHT22;658;48.820;9.354;2022-08-03T13:36:35;28.80;43.70
1329;DHT22;658;48.820;9.354;2022-08-03T13:40:36;28.80;43.60
1329;DHT22;658;48.820;9.354;2022-08-03T13:44:37;28.80;43.50
1329;DHT22;658;48.820;9.354;2022-08-03T13:48:38;28.90;43.40
1329;DHT22;658;48.820;9.354;2022-08-03T13:52:38;28.90;43.30
1329;DHT22;658;48.820;9.354;2022-08-03T13:56:39;28.90;43.90
1329;DHT22;658;48.820;9.354;2022-08-03T14:00:40;28.90;43.20
1329;DHT22;658;48.820;9.354;2022-08-03T14:04:40;29.00;42.60
1329;DHT22;658;48.820;9.354;2022-08-03T14:08:41;29.00;42.70
1329;DHT22;658;48.820;9.354;2022-08-03T14:12:42;28.90;42.80
1329;DHT22;658;48.820;9.354;2022-08-03T14:16:42;29.00;42.70
1329;DHT22;658;48.820;9.354;2022-08-03T14:20:43;29.00;42.60
1329;DHT22;658;48.820;9.354;2022-08-03T14:24:44;29.00;42.50
1329;DHT22;658;48.820;9.354;2022-08-03T14:28:45;29.00;42.50
1329;DHT22;658;48.820;9.354;2022-08-03T14:32:45;29.10;42.40
1329;DHT22;658;48.820;9.354;2022-08-03T14:36:46;29.10;42.00
1329;DHT22;658;48.820;9.354;2022-08-03T14:40:47;29.10;41.80
1329;DHT22;658;48.820;9.354;2022-08-03T14:44:48;29.10;42.00
1329;DHT22;658;48.820;9.354;2022-08-03T14:48:49;29.10;41.90
1329;DHT22;658;48.820;9.354;2022-08-03T14:52:50;29.10;41.80
1329;DHT22;658;48.820;9.354;2022-08-03T14:56:51;29.10;41.70
1329;DHT22;658;48.820;9.354;2022-08-03T15:00:54;29.10;41.60
1329;DHT22;658;48.820;9.354;2022-08-03T15:04:55;29.10;41.40
1329;DHT22;658;48.820;9.354;2022-08-03T15:08:56;29.10;41.30
1329;DHT22;658;48.820;9.354;2022-08-03T15:12:56;29.20;41.50
1329;DHT22;658;48.820;9.354;2022-08-03T15:16:57;29.10;41.30
1329;DHT22;658;48.820;9.354;2022-08-03T15:20:57;29.20;41.00
1329;DHT22;658;48.820;9.354;2022-08-03T15:24:58;29.20;41.10
1329;DHT22;658;48.820;9.354;2022-08-03T15:28:59;29.20;41.10
1329;DHT22;658;48.820;9.354;2022-08-03T15:32:59;29.20;41.20
1329;DHT22;658;48.820;9.354;2022-08-03T15:37:00;29.20;41.20
1329;DHT22;658;48.820;9.354;2022-08-03T15:41:01;29.30;41.20
1329;DHT22;658;48.820;9.354;2022-08-03T15:45:03;29.30;41.00
1329;DHT22;658;48.820;9.354;2022-08-03T15:49:04;29.30;41.00
1329;DHT22;658;48.820;9.354;2022-08-03T15:53:05;29.30;40.60
1329;DHT22;658;48.820;9.354;2022-08-03T15:57:06;29.30;40.60
1329;DHT22;658;48.820;9.354;2022-08-03T16:01:06;29.30;40.40
1329;DHT22;658;48.820;9.354;2022-08-03T16:05:07;29.30;39.90
1329;DHT22;658;48.820;9.354;2022-08-03T16:09:08;29.30;39.80
1329;DHT22;658;48.820;9.354;2022-08-03T16:13:09;29.30;39.70
1329;DHT22;658;48.820;9.354;2022-08-03T16:17:10;29.30;39.60
1329;DHT22;658;48.820;9.354;2022-08-03T16:21:10;29.30;38.90
1329;DHT22;658;48.820;9.354;2022-08-03T16:25:14;29.30;38.70
1329;DHT22;658;48.820;9.354;2022-08-03T16:29:15;29.30;38.50
1329;DHT22;658;48.820;9.354;2022-08-03T16:33:16;29.30;38.00
1329;DHT22;658;48.820;9.354;2022-08-03T16:37:17;29.30;38.10
1329;DHT22;658;48.820;9.354;2022-08-03T16:41:17;29.40;38.00
1329;DHT22;658;48.820;9.354;2022-08-03T16:45:18;29.40;38.10
1329;DHT22;658;48.820;9.354;2022-08-03T16:49:19;29.40;38.00
1329;DHT22;658;48.820;9.354;2022-08-03T16:53:19;29.40;37.90
1329;DHT22;658;48.820;9.354;2022-08-03T16:57:21;29.40;38.00
1329;DHT22;658;48.820;9.354;2022-08-03T17:01:22;29.50;38.40
1329;DHT22;658;48.820;9.354;2022-08-03T17:05:24;29.50;38.40
1329;DHT22;658;48.820;9.354;2022-08-03T17:09:25;29.50;38.50
1329;DHT22;658;48.820;9.354;2022-08-03T17:13:27;29.50;38.80
1329;DHT22;658;48.820;9.354;2022-08-03T17:17:30;29.50;39.00
1329;DHT22;658;48.820;9.354;2022-08-03T17:21:34;29.50;39.20
1329;DHT22;658;48.820;9.354;2022-08-03T17:25:37;29.50;39.30
1329;DHT22;658;48.820;9.354;2022-08-03T17:29:38;29.50;39.40
1329;DHT22;658;48.820;9.354;2022-08-03T17:33:41;29.50;39.50
1329;DHT22;658;48.820;9.354;2022-08-03T17:37:42;29.50;39.70
1329;DHT22;658;48.820;9.354;2022-08-03T17:41:43;29.50;40.10
1329;DHT22;658;48.820;9.354;2022-08-03T17:45:44;29.50;40.30
1329;DHT22;658;48.820;9.354;2022-08-03T17:49:45;29.50;40.50
1329;DHT22;658;48.820;9.354;2022-08-03T17:54:16;29.50;40.70
1329;DHT22;658;48.820;9.354;2022-08-03T17:58:57;29.50;40.90
1329;DHT22;658;48.820;9.354;2022-08-03T18:07:38;29.50;41.40
1329;DHT22;658;48.820;9.354;2022-08-03T18:11:43;29.50;41.60
1329;DHT22;658;48.820;9.354;2022-08-03T18:15:52;29.50;41.70
1329;DHT22;658;48.820;9.354;2022-08-03T18:19:58;29.50;42.00
1329;DHT22;658;48.820;9.354;2022-08-03T18:24:00;29.50;42.10
1329;DHT22;658;48.820;9.354;2022-08-03T18:28:04;29.50;42.30
1329;DHT22;658;48.820;9.354;2022-08-03T18:32:06;29.50;42.50
1329;DHT22;658;48.820;9.354;2022-08-03T18:36:09;29.50;42.50
1329;DHT22;658;48.820;9.354;2022-08-03T18:40:10;29.50;42.60
1329;DHT22;658;48.820;9.354;2022-08-03T18:44:12;29.50;42.70
1329;DHT22;658;48.820;9.354;2022-08-03T18:52:53;29.50;43.10
1329;DHT22;658;48.820;9.354;2022-08-03T18:56:58;29.40;43.50
1329;DHT22;658;48.820;9.354;2022-08-03T19:02:06;29.40;43.80
1329;DHT22;658;48.820;9.354;2022-08-03T19:05:42;29.40;44.00
1329;DHT22;658;48.820;9.354;2022-08-03T19:09:55;29.40;44.90
1329;DHT22;658;48.820;9.354;2022-08-03T19:13:57;29.30;45.20
1329;DHT22;658;48.820;9.354;2022-08-03T19:18:00;29.30;45.10
1329;DHT22;658;48.820;9.354;2022-08-03T19:22:04;29.40;45.40
1329;DHT22;658;48.820;9.354;2022-08-03T19:26:05;29.30;45.70
1329;DHT22;658;48.820;9.354;2022-08-03T19:30:06;29.30;46.10
1329;DHT22;658;48.820;9.354;2022-08-03T19:34:08;29.20;46.30
1329;DHT22;658;48.820;9.354;2022-08-03T19:38:09;29.20;46.50
1329;DHT22;658;48.820;9.354;2022-08-03T19:42:11;29.20;47.00
1329;DHT22;658;48.820;9.354;2022-08-03T19:46:14;29.10;47.50
1329;DHT22;658;48.820;9.354;2022-08-03T19:50:15;29.00;47.60
1329;DHT22;658;48.820;9.354;2022-08-03T19:54:19;29.10;47.70
1329;DHT22;658;48.820;9.354;2022-08-03T19:58:22;29.10;47.90
1329;DHT22;658;48.820;9.354;2022-08-03T20:02:24;29.00;48.10
1329;DHT22;658;48.820;9.354;2022-08-03T20:06:24;29.00;48.20
1329;DHT22;658;48.820;9.354;2022-08-03T20:10:27;28.90;48.20
1329;DHT22;658;48.820;9.354;2022-08-03T20:14:28;28.90;48.30
1329;DHT22;658;48.820;9.354;2022-08-03T20:18:29;28.80;48.20
1329;DHT22;658;48.820;9.354;2022-08-03T20:22:41;28.80;48.30
1329;DHT22;658;48.820;9.354;2022-08-03T20:26:48;28.80;48.20
1329;DHT22;658;48.820;9.354;2022-08-03T20:30:50;28.90;48.10
1329;DHT22;658;48.820;9.354;2022-08-03T20:34:50;28.90;48.00
1329;DHT22;658;48.820;9.354;2022-08-03T20:38:51;28.90;47.80
1329;DHT22;658;48.820;9.354;2022-08-03T20:42:52;28.90;47.70
1329;DHT22;658;48.820;9.354;2022-08-03T20:46:54;28.70;47.50
1329;DHT22;658;48.820;9.354;2022-08-03T20:50:55;28.70;47.50
1329;DHT22;658;48.820;9.354;2022-08-03T20:54:56;28.70;47.40
1329;DHT22;658;48.820;9.354;2022-08-03T20:58:58;28.80;47.40
1329;DHT22;658;48.820;9.354;2022-08-03T21:02:59;28.80;47.20
1329;DHT22;658;48.820;9.354;2022-08-03T21:07:05;28.80;47.30
1329;DHT22;658;48.820;9.354;2022-08-03T21:11:10;28.80;47.30
1329;DHT22;658;48.820;9.354;2022-08-03T21:15:15;28.80;47.20
1329;DHT22;658;48.820;9.354;2022-08-03T21:19:18;28.70;47.10
1329;DHT22;658;48.820;9.354;2022-08-03T21:23:20;28.70;47.20
1329;DHT22;658;48.820;9.354;2022-08-03T21:27:22;28.70;47.30
1329;DHT22;658;48.820;9.354;2022-08-03T21:31:24;28.70;47.30
1329;DHT22;658;48.820;9.354;2022-08-03T21:35:24;28.70;47.20
1329;DHT22;658;48.820;9.354;2022-08-03T21:39:25;28.70;47.20
1329;DHT22;658;48.820;9.354;2022-08-03T21:43:26;28.60;47.10
1329;DHT22;658;48.820;9.354;2022-08-03T21:47:27;28.60;47.10
1329;DHT22;658;48.820;9.354;2022-08-03T21:51:28;28.60;47.20
1329;DHT22;658;48.820;9.354;2022-08-03T21:55:31;28.60;47.20
1329;DHT22;658;48.820;9.354;2022-08-03T21:59:35;28.60;47.30
1329;DHT22;658;48.820;9.354;2022-08-03T22:03:39;28.50;47.20
1329;DHT22;658;48.820;9.354;2022-08-03T22:07:41;28.50;47.20
1329;DHT22;658;48.820;9.354;2022-08-03T22:11:43;28.50;47.30
1329;DHT22;658;48.820;9.354;2022-08-03T22:15:44;28.50;47.30
1329;DHT22;658;48.820;9.354;2022-08-03T22:19:49;28.50;47.30
1329;DHT22;658;48.820;9.354;2022-08-03T22:23:50;28.50;47.40
1329;DHT22;658;48.820;9.354;2022-08-03T22:27:54;28.40;47.40
1329;DHT22;658;48.820;9.354;2022-08-03T22:31:54;28.40;47.40
1329;DHT22;658;48.820;9.354;2022-08-03T22:35:56;28.40;47.50
1329;DHT22;658;48.820;9.354;2022-08-03T22:39:59;28.40;47.50
1329;DHT22;658;48.820;9.354;2022-08-03T22:44:02;28.40;47.60
1329;DHT22;658;48.820;9.354;2022-08-03T22:48:04;28.40;47.60
1329;DHT22;658;48.820;9.354;2022-08-03T22:52:07;28.30;47.50
1329;DHT22;658;48.820;9.354;2022-08-03T22:56:10;28.40;47.60
1329;DHT22;658;48.820;9.354;2022-08-03T23:00:12;28.30;47.60
1329;DHT22;658;48.820;9.354;2022-08-03T23:04:13;28.30;47.70
1329;DHT22;658;48.820;9.354;2022-08-03T23:08:18;28.30;47.80
1329;DHT22;658;48.820;9.354;2022-08-03T23:12:20;28.20;47.80
1329;DHT22;658;48.820;9.354;2022-08-03T23:16:21;28.20;47.80
1329;DHT22;658;48.820;9.354;2022-08-03T23:20:24;28.20;47.80
1329;DHT22;658;48.820;9.354;2022-08-03T23:24:25;28.20;47.90
1329;DHT22;658;48.820;9.354;2022-08-03T23:28:27;28.20;47.90
1329;DHT22;658;48.820;9.354;2022-08-03T23:32:30;28.20;48.00
1329;DHT22;658;48.820;9.354;2022-08-03T23:36:31;28.10;48.00
1329;DHT22;658;48.820;9.354;2022-08-03T23:40:32;28.10;48.00
1329;DHT22;658;48.820;9.354;2022-08-03T23:44:33;28.10;48.10
1329;DHT22;658;48.820;9.354;2022-08-03T23:48:36;28.10;48.10
1329;DHT22;658;48.820;9.354;2022-08-03T23:57:29;28.10;48.10
